sensor_id;sensor_type;location;lat;lon;timestamp;pressure;altitude;pressure_sealevel;temperature;humidity
59190;BME280;50749;51.636;4.948;2023-06-14T00:01:44;101507.50;;;24.89;39.02
59190;BME280;50749;51.636;4.948;2023-06-14T00:04:14;101513.88;;;24.89;38.54
59190;BME280;50749;51.636;4.948;2023-06-14T00:06:42;101511.47;;;24.88;38.82
59190;BME280;50749;51.636;4.948;2023-06-14T00:09:11;101509.88;;;24.87;38.79
59190;BME280;50749;51.636;4.948;2023-06-14T00:11:41;101509.88;;;24.87;38.82
59190;BME280;50749;51.636;4.948;2023-06-14T00:14:06;101511.06;;;24.85;38.93
59190;BME280;50749;51.636;4.948;2023-06-14T00:16:32;101519.44;;;24.85;38.83
59190;BME280;50749;51.636;4.948;2023-06-14T00:18:59;101507.84;;;24.83;38.72
59190;BME280;50749;51.636;4.948;2023-06-14T00:21:25;101503.44;;;24.82;39.04
59190;BME280;50749;51.636;4.948;2023-06-14T00:23:53;101511.44;;;24.84;38.63
59190;BME280;50749;51.636;4.948;2023-06-14T00:26:19;101509.03;;;24.82;38.72
59190;BME280;50749;51.636;4.948;2023-06-14T00:28:45;101511.03;;;24.82;38.98
59190;BME280;50749;51.636;4.948;2023-06-14T00:31:11;101513.84;;;24.82;39.00
59190;BME280;50749;51.636;4.948;2023-06-14T00:33:36;101521.03;;;24.83;38.61
59190;BME280;50749;51.636;4.948;2023-06-14T00:36:02;101518.22;;;24.83;38.53
59190;BME280;50749;51.636;4.948;2023-06-14T00:38:28;101512.63;;;24.83;38.47
59190;BME280;50749;51.636;4.948;2023-06-14T00:40:54;101503.44;;;24.82;38.73
59190;BME280;50749;51.636;4.948;2023-06-14T00:43:19;101514.63;;;24.82;39.03
59190;BME280;50749;51.636;4.948;2023-06-14T00:45:45;101509.81;;;24.79;38.95
59190;BME280;50749;51.636;4.948;2023-06-14T00:48:12;101511.44;;;24.80;38.30
59190;BME280;50749;51.636;4.948;2023-06-14T00:50:39;101516.63;;;24.78;38.58
59190;BME280;50749;51.636;4.948;2023-06-14T00:53:06;101522.59;;;24.77;38.37
59190;BME280;50749;51.636;4.948;2023-06-14T00:55:32;101512.22;;;24.77;38.23
59190;BME280;50749;51.636;4.948;2023-06-14T00:57:58;101521.78;;;24.76;38.42
59190;BME280;50749;51.636;4.948;2023-06-14T01:00:24;101526.19;;;24.77;38.83
59190;BME280;50749;51.636;4.948;2023-06-14T01:02:50;101520.59;;;24.77;38.84
59190;BME280;50749;51.636;4.948;2023-06-14T01:05:16;101514.59;;;24.75;38.62
59190;BME280;50749;51.636;4.948;2023-06-14T01:10:37;101511.00;;;24.75;38.67
59190;BME280;50749;51.636;4.948;2023-06-14T01:13:20;101514.59;;;24.75;38.62
59190;BME280;50749;51.636;4.948;2023-06-14T01:15:47;101524.16;;;24.74;38.76
59190;BME280;50749;51.636;4.948;2023-06-14T01:18:13;101520.19;;;24.75;38.54
59190;BME280;50749;51.636;4.948;2023-06-14T01:20:47;101518.16;;;24.72;38.32
59190;BME280;50749;51.636;4.948;2023-06-14T01:23:20;101517.75;;;24.70;38.21
59190;BME280;50749;51.636;4.948;2023-06-14T01:25:47;101518.53;;;24.67;38.27
59190;BME280;50749;51.636;4.948;2023-06-14T01:28:15;101513.72;;;24.67;38.36
59190;BME280;50749;51.636;4.948;2023-06-14T01:30:44;101508.53;;;24.66;38.37
59190;BME280;50749;51.636;4.948;2023-06-14T01:33:22;101520.16;;;24.68;38.80
59190;BME280;50749;51.636;4.948;2023-06-14T01:35:50;101518.16;;;24.69;38.25
59190;BME280;50749;51.636;4.948;2023-06-14T01:38:18;101508.97;;;24.68;38.53
59190;BME280;50749;51.636;4.948;2023-06-14T01:40:46;101522.94;;;24.68;38.52
59190;BME280;50749;51.636;4.948;2023-06-14T01:43:13;101518.53;;;24.67;38.66
59190;BME280;50749;51.636;4.948;2023-06-14T01:45:40;101515.34;;;24.65;38.55
59190;BME280;50749;51.636;4.948;2023-06-14T01:48:07;101519.31;;;24.64;38.27
59190;BME280;50749;51.636;4.948;2023-06-14T01:50:33;101512.53;;;24.65;38.72
59190;BME280;50749;51.636;4.948;2023-06-14T01:52:59;101509.34;;;24.63;38.61
59190;BME280;50749;51.636;4.948;2023-06-14T01:55:25;101519.31;;;24.64;38.38
59190;BME280;50749;51.636;4.948;2023-06-14T01:57:51;101515.72;;;24.63;38.03
59190;BME280;50749;51.636;4.948;2023-06-14T02:00:18;101517.72;;;24.63;38.39
59190;BME280;50749;51.636;4.948;2023-06-14T02:02:44;101508.91;;;24.61;38.23
59190;BME280;50749;51.636;4.948;2023-06-14T02:05:10;101520.50;;;24.63;38.69
59190;BME280;50749;51.636;4.948;2023-06-14T02:07:36;101513.31;;;24.62;38.33
59190;BME280;50749;51.636;4.948;2023-06-14T02:10:03;101524.47;;;24.62;38.18
59190;BME280;50749;51.636;4.948;2023-06-14T02:12:28;101516.91;;;24.62;38.10
59190;BME280;50749;51.636;4.948;2023-06-14T02:14:54;101504.50;;;24.60;38.34
59190;BME280;50749;51.636;4.948;2023-06-14T02:17:21;101518.50;;;24.60;38.71
59190;BME280;50749;51.636;4.948;2023-06-14T02:19:47;101513.69;;;24.60;38.51
59190;BME280;50749;51.636;4.948;2023-06-14T02:22:14;101518.50;;;24.60;37.94
59190;BME280;50749;51.636;4.948;2023-06-14T02:24:43;101516.47;;;24.57;38.45
59190;BME280;50749;51.636;4.948;2023-06-14T02:27:09;101519.66;;;24.59;38.78
59190;BME280;50749;51.636;4.948;2023-06-14T02:29:37;101516.47;;;24.57;38.40
59190;BME280;50749;51.636;4.948;2023-06-14T02:32:04;101512.06;;;24.56;38.58
59190;BME280;50749;51.636;4.948;2023-06-14T02:34:35;101516.47;;;24.57;38.64
59190;BME280;50749;51.636;4.948;2023-06-14T02:37:02;101525.66;;;24.57;38.34
59190;BME280;50749;51.636;4.948;2023-06-14T02:39:29;101523.22;;;24.56;38.18
59190;BME280;50749;51.636;4.948;2023-06-14T02:41:55;101525.59;;;24.54;38.41
59190;BME280;50749;51.636;4.948;2023-06-14T02:44:24;101521.19;;;24.53;38.66
59190;BME280;50749;51.636;4.948;2023-06-14T02:46:51;101521.59;;;24.51;38.73
59190;BME280;50749;51.636;4.948;2023-06-14T02:49:16;101519.19;;;24.50;38.47
59190;BME280;50749;51.636;4.948;2023-06-14T02:51:42;101519.19;;;24.50;38.86
59190;BME280;50749;51.636;4.948;2023-06-14T02:54:08;101529.94;;;24.47;38.52
59190;BME280;50749;51.636;4.948;2023-06-14T02:56:34;101517.16;;;24.46;38.32
59190;BME280;50749;51.636;4.948;2023-06-14T02:58:59;101533.94;;;24.46;38.40
59190;BME280;50749;51.636;4.948;2023-06-14T03:01:27;101530.31;;;24.46;38.33
59190;BME280;50749;51.636;4.948;2023-06-14T03:04:03;101529.91;;;24.44;38.43
59190;BME280;50749;51.636;4.948;2023-06-14T03:06:29;101529.91;;;24.44;38.67
59190;BME280;50749;51.636;4.948;2023-06-14T03:08:56;101536.31;;;24.44;38.52
59190;BME280;50749;51.636;4.948;2023-06-14T03:11:26;101537.50;;;24.43;38.32
59190;BME280;50749;51.636;4.948;2023-06-14T03:13:53;101530.72;;;24.44;38.43
59190;BME280;50749;51.636;4.948;2023-06-14T03:16:19;101541.47;;;24.42;38.63
59190;BME280;50749;51.636;4.948;2023-06-14T03:18:51;101542.28;;;24.43;38.58
59190;BME280;50749;51.636;4.948;2023-06-14T03:21:20;101534.28;;;24.41;38.40
59190;BME280;50749;51.636;4.948;2023-06-14T03:23:47;101539.88;;;24.41;38.59
59190;BME280;50749;51.636;4.948;2023-06-14T03:26:14;101543.84;;;24.40;38.81
59190;BME280;50749;51.636;4.948;2023-06-14T03:28:46;101538.25;;;24.40;38.81
59190;BME280;50749;51.636;4.948;2023-06-14T03:31:13;101543.44;;;24.38;38.98
59190;BME280;50749;51.636;4.948;2023-06-14T03:33:39;101550.63;;;24.39;38.87
59190;BME280;50749;51.636;4.948;2023-06-14T03:36:05;101548.63;;;24.40;38.48
59190;BME280;50749;51.636;4.948;2023-06-14T03:38:32;101549.81;;;24.39;38.30
59190;BME280;50749;51.636;4.948;2023-06-14T03:40:58;101553.00;;;24.37;38.56
59190;BME280;50749;51.636;4.948;2023-06-14T03:43:23;101550.19;;;24.37;38.37
59190;BME280;50749;51.636;4.948;2023-06-14T03:45:49;101549.03;;;24.38;38.34
59190;BME280;50749;51.636;4.948;2023-06-14T03:48:15;101555.78;;;24.37;38.58
59190;BME280;50749;51.636;4.948;2023-06-14T03:50:40;101554.19;;;24.36;38.38
59190;BME280;50749;51.636;4.948;2023-06-14T03:53:08;101551.41;;;24.36;38.46
59190;BME280;50749;51.636;4.948;2023-06-14T03:55:34;101558.16;;;24.35;38.49
59190;BME280;50749;51.636;4.948;2023-06-14T03:58:00;101558.97;;;24.36;38.38
59190;BME280;50749;51.636;4.948;2023-06-14T04:00:26;101555.38;;;24.35;38.83
59190;BME280;50749;51.636;4.948;2023-06-14T04:02:52;101560.97;;;24.35;38.06
59190;BME280;50749;51.636;4.948;2023-06-14T04:05:18;101570.97;;;24.36;38.58
59190;BME280;50749;51.636;4.948;2023-06-14T04:07:45;101557.78;;;24.37;38.38
59190;BME280;50749;51.636;4.948;2023-06-14T04:10:12;101562.97;;;24.35;38.54
59190;BME280;50749;51.636;4.948;2023-06-14T04:12:39;101572.16;;;24.35;38.75
59190;BME280;50749;51.636;4.948;2023-06-14T04:15:05;101583.31;;;24.35;38.57
59190;BME280;50749;51.636;4.948;2023-06-14T04:17:32;101570.97;;;24.36;38.76
59190;BME280;50749;51.636;4.948;2023-06-14T04:20:02;101573.75;;;24.36;38.81
59190;BME280;50749;51.636;4.948;2023-06-14T04:22:30;101568.19;;;24.36;38.36
59190;BME280;50749;51.636;4.948;2023-06-14T04:24:56;101572.16;;;24.35;38.34
59190;BME280;50749;51.636;4.948;2023-06-14T04:27:23;101571.75;;;24.37;38.57
59190;BME280;50749;51.636;4.948;2023-06-14T04:29:54;101572.16;;;24.35;38.52
59190;BME280;50749;51.636;4.948;2023-06-14T04:32:28;101580.53;;;24.35;38.74
59190;BME280;50749;51.636;4.948;2023-06-14T04:34:55;101582.50;;;24.31;38.79
59190;BME280;50749;51.636;4.948;2023-06-14T04:37:22;101580.47;;;24.28;38.58
59190;BME280;50749;51.636;4.948;2023-06-14T04:39:48;101579.25;;;24.29;38.72
59190;BME280;50749;51.636;4.948;2023-06-14T04:42:14;101586.44;;;24.26;37.90
59190;BME280;50749;51.636;4.948;2023-06-14T04:44:44;101582.75;;;24.19;37.79
59190;BME280;50749;51.636;4.948;2023-06-14T04:47:10;101585.06;;;24.09;37.83
59190;BME280;50749;51.636;4.948;2023-06-14T04:49:38;101594.94;;;24.00;37.13
59190;BME280;50749;51.636;4.948;2023-06-14T04:52:06;101588.91;;;23.94;37.96
59190;BME280;50749;51.636;4.948;2023-06-14T04:54:32;101587.22;;;23.86;37.77
59190;BME280;50749;51.636;4.948;2023-06-14T04:56:58;101594.28;;;23.80;37.09
59190;BME280;50749;51.636;4.948;2023-06-14T04:59:24;101587.03;;;23.75;37.87
59190;BME280;50749;51.636;4.948;2023-06-14T05:01:50;101591.41;;;23.72;37.56
59190;BME280;50749;51.636;4.948;2023-06-14T05:04:17;101583.41;;;23.71;37.49
59190;BME280;50749;51.636;4.948;2023-06-14T05:06:44;101589.38;;;23.69;37.54
59190;BME280;50749;51.636;4.948;2023-06-14T05:09:16;101589.75;;;23.68;37.88
59190;BME280;50749;51.636;4.948;2023-06-14T05:11:45;101586.97;;;23.68;37.85
59190;BME280;50749;51.636;4.948;2023-06-14T05:14:11;101590.94;;;23.67;37.90
59190;BME280;50749;51.636;4.948;2023-06-14T05:16:37;101599.75;;;23.69;37.37
59190;BME280;50749;51.636;4.948;2023-06-14T05:19:04;101602.94;;;23.71;37.83
59190;BME280;50749;51.636;4.948;2023-06-14T05:21:30;101602.53;;;23.69;37.42
59190;BME280;50749;51.636;4.948;2023-06-14T05:23:57;101610.09;;;23.68;37.10
59190;BME280;50749;51.636;4.948;2023-06-14T05:26:23;101606.91;;;23.70;37.11
59190;BME280;50749;51.636;4.948;2023-06-14T05:28:57;101610.13;;;23.72;37.49
59190;BME280;50749;51.636;4.948;2023-06-14T05:31:24;101604.53;;;23.72;37.57
59190;BME280;50749;51.636;4.948;2023-06-14T05:33:50;101613.75;;;23.72;37.73
59190;BME280;50749;51.636;4.948;2023-06-14T05:36:16;101610.19;;;23.76;37.44
59190;BME280;50749;51.636;4.948;2023-06-14T05:38:42;101605.41;;;23.76;37.54
59190;BME280;50749;51.636;4.948;2023-06-14T05:41:07;101609.41;;;23.79;36.93
59190;BME280;50749;51.636;4.948;2023-06-14T05:43:33;101607.81;;;23.78;36.99
59190;BME280;50749;51.636;4.948;2023-06-14T05:45:59;101617.41;;;23.80;37.24
59190;BME280;50749;51.636;4.948;2023-06-14T05:48:24;101615.44;;;23.81;36.93
59190;BME280;50749;51.636;4.948;2023-06-14T05:50:50;101615.88;;;23.83;37.43
59190;BME280;50749;51.636;4.948;2023-06-14T05:53:16;101612.34;;;23.86;37.30
59190;BME280;50749;51.636;4.948;2023-06-14T05:55:41;101615.97;;;23.90;37.27
59190;BME280;50749;51.636;4.948;2023-06-14T05:58:07;101622.88;;;24.00;37.53
59190;BME280;50749;51.636;4.948;2023-06-14T06:00:33;101622.16;;;24.06;37.30
59190;BME280;50749;51.636;4.948;2023-06-14T06:02:59;101623.41;;;24.13;37.32
59190;BME280;50749;51.636;4.948;2023-06-14T06:05:24;101625.88;;;24.18;37.22
59190;BME280;50749;51.636;4.948;2023-06-14T06:07:50;101623.53;;;24.23;37.44
59190;BME280;50749;51.636;4.948;2023-06-14T06:10:16;101625.16;;;24.28;37.61
59190;BME280;50749;51.636;4.948;2023-06-14T06:12:42;101623.19;;;24.32;37.88
59190;BME280;50749;51.636;4.948;2023-06-14T06:15:08;101629.25;;;24.38;37.63
59190;BME280;50749;51.636;4.948;2023-06-14T06:17:38;101631.66;;;24.39;37.78
59190;BME280;50749;51.636;4.948;2023-06-14T06:20:04;101629.28;;;24.41;38.12
59190;BME280;50749;51.636;4.948;2023-06-14T06:22:32;101634.13;;;24.44;37.63
59190;BME280;50749;51.636;4.948;2023-06-14T06:24:57;101630.53;;;24.47;38.09
59190;BME280;50749;51.636;4.948;2023-06-14T06:27:23;101636.56;;;24.50;37.93
59190;BME280;50749;51.636;4.948;2023-06-14T06:29:49;101635.78;;;24.53;37.72
59190;BME280;50749;51.636;4.948;2023-06-14T06:32:15;101642.25;;;24.57;37.76
59190;BME280;50749;51.636;4.948;2023-06-14T06:34:41;101644.69;;;24.62;37.80
59190;BME280;50749;51.636;4.948;2023-06-14T06:37:07;101650.69;;;24.64;37.95
59190;BME280;50749;51.636;4.948;2023-06-14T06:39:32;101655.91;;;24.65;38.24
59190;BME280;50749;51.636;4.948;2023-06-14T06:41:58;101660.72;;;24.69;38.09
59190;BME280;50749;51.636;4.948;2023-06-14T06:44:24;101661.13;;;24.71;38.02
59190;BME280;50749;51.636;4.948;2023-06-14T06:46:50;101658.75;;;24.73;38.16
59190;BME280;50749;51.636;4.948;2023-06-14T06:49:16;101664.78;;;24.75;37.81
59190;BME280;50749;51.636;4.948;2023-06-14T06:51:42;101659.97;;;24.75;37.80
59190;BME280;50749;51.636;4.948;2023-06-14T06:54:09;101658.38;;;24.78;37.63
59190;BME280;50749;51.636;4.948;2023-06-14T06:56:35;101660.81;;;24.79;37.81
59190;BME280;50749;51.636;4.948;2023-06-14T06:59:01;101669.63;;;24.81;37.91
59190;BME280;50749;51.636;4.948;2023-06-14T07:01:27;101667.25;;;24.83;37.47
59190;BME280;50749;51.636;4.948;2023-06-14T07:03:54;101665.25;;;24.84;37.92
59190;BME280;50749;51.636;4.948;2023-06-14T07:06:21;101670.81;;;24.80;37.62
59190;BME280;50749;51.636;4.948;2023-06-14T07:08:47;101672.75;;;24.76;37.27
59190;BME280;50749;51.636;4.948;2023-06-14T07:11:16;101677.53;;;24.72;37.27
59190;BME280;50749;51.636;4.948;2023-06-14T07:13:41;101676.25;;;24.66;37.45
59190;BME280;50749;51.636;4.948;2023-06-14T07:16:07;101675.84;;;24.64;37.06
59190;BME280;50749;51.636;4.948;2023-06-14T07:18:33;101677.44;;;24.61;36.88
59190;BME280;50749;51.636;4.948;2023-06-14T07:20:59;101676.56;;;24.57;36.89
59190;BME280;50749;51.636;4.948;2023-06-14T07:23:25;101681.41;;;24.60;37.07
59190;BME280;50749;51.636;4.948;2023-06-14T07:25:51;101680.63;;;24.60;36.83
59190;BME280;50749;51.636;4.948;2023-06-14T07:28:17;101685.75;;;24.58;37.28
59190;BME280;50749;51.636;4.948;2023-06-14T07:30:43;101685.75;;;24.58;36.93
59190;BME280;50749;51.636;4.948;2023-06-14T07:33:09;101688.56;;;24.58;36.82
59190;BME280;50749;51.636;4.948;2023-06-14T07:35:37;101694.97;;;24.58;37.02
59190;BME280;50749;51.636;4.948;2023-06-14T07:38:02;101691.78;;;24.60;36.80
59190;BME280;50749;51.636;4.948;2023-06-14T07:40:28;101689.38;;;24.58;36.99
59190;BME280;50749;51.636;4.948;2023-06-14T07:42:54;101686.19;;;24.60;37.13
59190;BME280;50749;51.636;4.948;2023-06-14T07:45:20;101691.78;;;24.60;37.00
59190;BME280;50749;51.636;4.948;2023-06-14T07:47:46;101693.75;;;24.59;36.53
59190;BME280;50749;51.636;4.948;2023-06-14T07:50:12;101692.59;;;24.60;36.80
59190;BME280;50749;51.636;4.948;2023-06-14T07:52:39;101688.16;;;24.59;36.60
59190;BME280;50749;51.636;4.948;2023-06-14T07:55:05;101692.59;;;24.60;36.53
59190;BME280;50749;51.636;4.948;2023-06-14T07:57:31;101696.63;;;24.63;36.69
59190;BME280;50749;51.636;4.948;2023-06-14T07:59:56;101699.41;;;24.63;36.49
59190;BME280;50749;51.636;4.948;2023-06-14T08:02:22;101696.69;;;24.70;36.66
59190;BME280;50749;51.636;4.948;2023-06-14T08:04:48;101703.09;;;24.74;36.64
59190;BME280;50749;51.636;4.948;2023-06-14T08:07:14;101706.28;;;24.73;36.82
59190;BME280;50749;51.636;4.948;2023-06-14T08:09:40;101704.69;;;24.72;36.62
59190;BME280;50749;51.636;4.948;2023-06-14T08:12:06;101700.69;;;24.73;36.41
59190;BME280;50749;51.636;4.948;2023-06-14T08:14:33;101699.09;;;24.72;36.11
59190;BME280;50749;51.636;4.948;2023-06-14T08:16:59;101710.28;;;24.72;36.46
59190;BME280;50749;51.636;4.948;2023-06-14T08:19:25;101709.06;;;24.73;36.23
59190;BME280;50749;51.636;4.948;2023-06-14T08:21:51;101713.50;;;24.74;36.49
59190;BME280;50749;51.636;4.948;2023-06-14T08:24:17;101707.09;;;24.73;36.12
59190;BME280;50749;51.636;4.948;2023-06-14T08:26:44;101705.47;;;24.72;35.71
59190;BME280;50749;51.636;4.948;2023-06-14T08:29:10;101707.09;;;24.73;35.73
59190;BME280;50749;51.636;4.948;2023-06-14T08:31:35;101701.13;;;24.75;35.82
59190;BME280;50749;51.636;4.948;2023-06-14T08:34:01;101693.16;;;24.77;35.82
59190;BME280;50749;51.636;4.948;2023-06-14T08:36:27;101700.34;;;24.78;35.41
59190;BME280;50749;51.636;4.948;2023-06-14T08:38:53;101705.53;;;24.79;35.57
59190;BME280;50749;51.636;4.948;2023-06-14T08:41:21;101705.53;;;24.79;35.81
59190;BME280;50749;51.636;4.948;2023-06-14T08:43:51;101701.94;;;24.79;35.75
59190;BME280;50749;51.636;4.948;2023-06-14T08:46:17;101706.38;;;24.80;36.08
59190;BME280;50749;51.636;4.948;2023-06-14T08:48:52;101703.56;;;24.80;35.84
59190;BME280;50749;51.636;4.948;2023-06-14T08:51:22;101717.16;;;24.81;35.71
59190;BME280;50749;51.636;4.948;2023-06-14T08:53:53;101706.78;;;24.82;35.38
59190;BME280;50749;51.636;4.948;2023-06-14T08:56:25;101708.81;;;24.85;35.65
59190;BME280;50749;51.636;4.948;2023-06-14T08:58:52;101709.25;;;24.91;36.04
59190;BME280;50749;51.636;4.948;2023-06-14T09:01:18;101708.88;;;24.96;35.94
59190;BME280;50749;51.636;4.948;2023-06-14T09:03:44;101703.72;;;25.01;36.11
59190;BME280;50749;51.636;4.948;2023-06-14T09:06:11;101710.56;;;25.04;36.23
59190;BME280;50749;51.636;4.948;2023-06-14T09:08:46;101707.78;;;25.08;35.68
59190;BME280;50749;51.636;4.948;2023-06-14T09:11:15;101711.34;;;25.04;35.57
59190;BME280;50749;51.636;4.948;2023-06-14T09:13:42;101722.94;;;25.03;35.50
59190;BME280;50749;51.636;4.948;2023-06-14T09:16:08;101722.94;;;25.03;35.72
59190;BME280;50749;51.636;4.948;2023-06-14T09:18:40;101720.13;;;25.03;36.26
59190;BME280;50749;51.636;4.948;2023-06-14T09:21:10;101720.97;;;25.07;36.16
59190;BME280;50749;51.636;4.948;2023-06-14T09:23:41;101720.97;;;25.07;35.83
59190;BME280;50749;51.636;4.948;2023-06-14T09:26:12;101726.59;;;25.11;36.67
59190;BME280;50749;51.636;4.948;2023-06-14T09:28:46;101722.19;;;25.10;36.45
59190;BME280;50749;51.636;4.948;2023-06-14T09:31:19;101721.38;;;25.09;35.94
59190;BME280;50749;51.636;4.948;2023-06-14T09:33:46;101726.56;;;25.07;35.83
59190;BME280;50749;51.636;4.948;2023-06-14T09:36:17;101730.16;;;25.08;35.39
59190;BME280;50749;51.636;4.948;2023-06-14T09:39:01;101734.19;;;25.10;35.94
59190;BME280;50749;51.636;4.948;2023-06-14T09:43:59;101727.41;;;25.11;35.57
59190;BME280;50749;51.636;4.948;2023-06-14T09:46:29;101730.19;;;25.11;35.45
59190;BME280;50749;51.636;4.948;2023-06-14T09:48:56;101720.63;;;25.12;35.23
59190;BME280;50749;51.636;4.948;2023-06-14T09:51:22;101726.63;;;25.14;35.01
59190;BME280;50749;51.636;4.948;2023-06-14T09:53:49;101723.44;;;25.16;34.92
59190;BME280;50749;51.636;4.948;2023-06-14T09:56:28;101725.06;;;25.17;35.35
59190;BME280;50749;51.636;4.948;2023-06-14T09:58:56;101733.06;;;25.18;35.32
59190;BME280;50749;51.636;4.948;2023-06-14T10:01:26;101724.69;;;25.18;35.22
59190;BME280;50749;51.636;4.948;2023-06-14T10:04:02;101723.47;;;25.19;35.85
59190;BME280;50749;51.636;4.948;2023-06-14T10:06:29;101720.66;;;25.19;35.60
59190;BME280;50749;51.636;4.948;2023-06-14T10:08:57;101725.50;;;25.22;35.29
59190;BME280;50749;51.636;4.948;2023-06-14T10:11:28;101728.28;;;25.22;35.62
59190;BME280;50749;51.636;4.948;2023-06-14T10:13:55;101720.31;;;25.25;35.65
59190;BME280;50749;51.636;4.948;2023-06-14T10:16:30;101729.53;;;25.25;35.09
59190;BME280;50749;51.636;4.948;2023-06-14T10:19:43;101727.16;;;25.27;35.28
59190;BME280;50749;51.636;4.948;2023-06-14T10:22:14;101722.78;;;25.30;35.81
59190;BME280;50749;51.636;4.948;2023-06-14T10:24:44;101727.59;;;25.29;35.87
59190;BME280;50749;51.636;4.948;2023-06-14T10:27:10;101722.78;;;25.30;34.94
59190;BME280;50749;51.636;4.948;2023-06-14T10:32:20;101732.41;;;25.32;35.35
59190;BME280;50749;51.636;4.948;2023-06-14T10:34:54;101721.63;;;25.34;35.78
59190;BME280;50749;51.636;4.948;2023-06-14T10:37:20;101716.03;;;25.34;35.66
59190;BME280;50749;51.636;4.948;2023-06-14T10:39:46;101717.19;;;25.33;35.35
59190;BME280;50749;51.636;4.948;2023-06-14T10:42:13;101713.22;;;25.34;35.33
59190;BME280;50749;51.636;4.948;2023-06-14T10:47:08;101709.25;;;25.35;35.00
59190;BME280;50749;51.636;4.948;2023-06-14T10:50:02;101718.03;;;25.34;34.88
59190;BME280;50749;51.636;4.948;2023-06-14T10:52:29;101725.22;;;25.35;34.68
59190;BME280;50749;51.636;4.948;2023-06-14T10:57:36;101724.41;;;25.34;34.80
59190;BME280;50749;51.636;4.948;2023-06-14T11:00:03;101720.44;;;25.35;34.74
59190;BME280;50749;51.636;4.948;2023-06-14T11:05:15;101709.25;;;25.39;34.55
59190;BME280;50749;51.636;4.948;2023-06-14T11:08:09;101726.84;;;25.39;34.84
59190;BME280;50749;51.636;4.948;2023-06-14T11:10:43;101713.25;;;25.38;34.53
59190;BME280;50749;51.636;4.948;2023-06-14T11:13:09;101714.03;;;25.38;34.90
59190;BME280;50749;51.636;4.948;2023-06-14T11:15:36;101710.84;;;25.40;34.51
59190;BME280;50749;51.636;4.948;2023-06-14T11:18:06;101720.47;;;25.39;34.72
59190;BME280;50749;51.636;4.948;2023-06-14T11:20:34;101722.03;;;25.40;35.28
59190;BME280;50749;51.636;4.948;2023-06-14T11:23:04;101718.06;;;25.41;35.34
59190;BME280;50749;51.636;4.948;2023-06-14T11:25:29;101708.44;;;25.38;34.96
59190;BME280;50749;51.636;4.948;2023-06-14T11:27:56;101703.66;;;25.39;34.91
59190;BME280;50749;51.636;4.948;2023-06-14T11:30:22;101702.06;;;25.38;35.08
59190;BME280;50749;51.636;4.948;2023-06-14T11:32:50;101708.88;;;25.40;34.90
59190;BME280;50749;51.636;4.948;2023-06-14T11:35:18;101702.88;;;25.42;34.35
59190;BME280;50749;51.636;4.948;2023-06-14T11:37:45;101696.09;;;25.43;34.60
59190;BME280;50749;51.636;4.948;2023-06-14T11:40:11;101696.50;;;25.45;34.65
59190;BME280;50749;51.636;4.948;2023-06-14T11:42:41;101696.50;;;25.45;34.76
59190;BME280;50749;51.636;4.948;2023-06-14T11:45:08;101700.50;;;25.44;34.84
59190;BME280;50749;51.636;4.948;2023-06-14T11:47:34;101690.88;;;25.45;34.62
59190;BME280;50749;51.636;4.948;2023-06-14T11:50:01;101696.50;;;25.45;34.98
59190;BME280;50749;51.636;4.948;2023-06-14T11:52:28;101694.09;;;25.44;35.50
59190;BME280;50749;51.636;4.948;2023-06-14T11:54:53;101698.88;;;25.43;35.07
59190;BME280;50749;51.636;4.948;2023-06-14T11:57:20;101703.31;;;25.44;34.78
59190;BME280;50749;51.636;4.948;2023-06-14T11:59:46;101705.31;;;25.47;34.29
59190;BME280;50749;51.636;4.948;2023-06-14T12:02:16;101699.75;;;25.54;33.90
59190;BME280;50749;51.636;4.948;2023-06-14T12:04:43;101715.38;;;25.55;35.05
59190;BME280;50749;51.636;4.948;2023-06-14T12:07:13;101706.97;;;25.55;34.96
59190;BME280;50749;51.636;4.948;2023-06-14T12:09:41;101701.38;;;25.55;36.15
59190;BME280;50749;51.636;4.948;2023-06-14T12:12:12;101706.97;;;25.55;36.21
59190;BME280;50749;51.636;4.948;2023-06-14T12:14:37;101702.97;;;25.56;35.62
59190;BME280;50749;51.636;4.948;2023-06-14T12:17:07;101702.97;;;25.60;35.52
59190;BME280;50749;51.636;4.948;2023-06-14T12:19:33;101700.63;;;25.62;35.29
59190;BME280;50749;51.636;4.948;2023-06-14T12:22:00;101705.78;;;25.64;35.32
59190;BME280;50749;51.636;4.948;2023-06-14T12:24:31;101707.41;;;25.65;35.59
59190;BME280;50749;51.636;4.948;2023-06-14T12:26:58;101712.25;;;25.68;36.00
59190;BME280;50749;51.636;4.948;2023-06-14T12:29:28;101721.03;;;25.70;35.87
59190;BME280;50749;51.636;4.948;2023-06-14T12:31:54;101717.06;;;25.71;35.43
59190;BME280;50749;51.636;4.948;2023-06-14T12:34:26;101705.09;;;25.74;35.97
59190;BME280;50749;51.636;4.948;2023-06-14T12:36:56;101697.47;;;25.74;35.63
59190;BME280;50749;51.636;4.948;2023-06-14T12:39:21;101703.06;;;25.74;35.74
59190;BME280;50749;51.636;4.948;2023-06-14T12:41:47;101707.47;;;25.75;35.65
59190;BME280;50749;51.636;4.948;2023-06-14T12:44:14;101711.50;;;25.78;35.64
59190;BME280;50749;51.636;4.948;2023-06-14T12:46:43;101708.31;;;25.80;35.41
59190;BME280;50749;51.636;4.948;2023-06-14T12:49:11;101713.13;;;25.79;35.67
59190;BME280;50749;51.636;4.948;2023-06-14T12:51:38;101708.31;;;25.80;35.59
59190;BME280;50749;51.636;4.948;2023-06-14T12:54:04;101706.28;;;25.80;35.81
59190;BME280;50749;51.636;4.948;2023-06-14T12:56:30;101717.50;;;25.80;36.01
59190;BME280;50749;51.636;4.948;2023-06-14T12:58:56;101710.72;;;25.81;35.52
59190;BME280;50749;51.636;4.948;2023-06-14T13:01:21;101715.09;;;25.82;35.77
59190;BME280;50749;51.636;4.948;2023-06-14T13:03:47;101712.31;;;25.82;35.83
59190;BME280;50749;51.636;4.948;2023-06-14T13:06:13;101709.09;;;25.84;35.74
59190;BME280;50749;51.636;4.948;2023-06-14T13:08:39;101703.13;;;25.85;35.55